Terminal Aerodrome Forecast
Issued by NWS Twin Cities, MN

Home | Current Version | Previous Version | Text Only | Print | Product List | Glossary Off
Versions: 1 2 3 4 5 6 7 8 9 10 11 12 13 14

793
FTUS43 KMPX 222339
TAFEAU
TAF
KEAU 222339Z 2300/2324 19011KT P6SM SKC
     FM230200 16006KT P6SM SCT110
     FM230900 17009KT P6SM SCT050 BKN120 WS020/20040KT
     FM231500 18014G22KT P6SM SCT025 BKN050
      TEMPO 2320/2324 3SM TSRA BKN025CB=

USA.gov is the U.S. government's official web portal to all federal, state and local government web resources and services.